Carlsbad, California
Current Conditions -  °F | °C
As of 9:52 AM on Wednesday 28 Jan 2015 (Local Time) from KOKB Reporting Station
Clear Clear  
Wind Chill: 65°   Ceiling: Unl
Heat Index: 65°   Visibility: 10mi
Dew Point: 49°   Wind: 5mph
Humidity: 56%   Direction: 50°NE
Pressure: 30.11"   Gusts: NA
Location:  33.17°N, 117.33°W
Report Text: KOKB 281752Z AUTO 05004KT 10SM CLR 18/09 A3011 RMK AO2 SLP196 T01830094 10183 20072 58001
Loading
Personal Weather Stations






























Interactive Weather Map New forecast layout! Learn more

10-Day Weather Forecast

Advertisements
Track Severe Weather on mobile